Time;durP1;ratioP1;P1;durP2;ratioP2;P2;SDS_P1;SDS_P2;PMS_P1;PMS_P2;Temp;Humidity;BMP_temperature;BMP_pressure;BME280_temperature;BME280_humidity;BME280_pressure;Samples;Min_cycle;Max_cycle;Signal;HPM_P1;HPM_P2
2022/04/29 00:00:11;;;;;;;2.78;2.13;;;;;;;;;;4999279;28;20030;-87
2022/04/29 00:02:39;;;;;;;2.10;1.75;;;;;;;;;;4994564;28;20134;-88
2022/04/29 00:05:06;;;;;;;2.60;1.20;;;;;;;;;;4991581;28;20117;-87
2022/04/29 00:07:32;;;;;;;2.35;1.88;;;;;;;;;;5007413;28;20029;-88
2022/04/29 00:09:58;;;;;;;3.05;1.88;;;;;;;;;;5006721;28;20080;-87
2022/04/29 00:12:25;;;;;;;2.10;1.48;;;;;;;;;;5010898;28;20030;-87
2022/04/29 00:14:51;;;;;;;2.05;1.27;;;;;;;;;;5003571;28;20038;-88
2022/04/29 00:17:17;;;;;;;4.45;1.65;;;;;;;;;;4998278;28;20491;-88
2022/04/29 00:19:45;;;;;;;2.95;1.88;;;;;;;;;;4994894;28;20030;-88
2022/04/29 00:22:11;;;;;;;4.97;1.35;;;;;;;;;;5009090;28;20553;-88
2022/04/29 00:24:37;;;;;;;2.45;1.42;;;;;;;;;;5010491;28;20030;-88
2022/04/29 00:27:04;;;;;;;1.48;1.38;;;;;;;;;;5004010;28;20117;-88
2022/04/29 00:29:29;;;;;;;5.22;1.60;;;;;;;;;;4993537;28;20041;-88
2022/04/29 00:31:55;;;;;;;3.42;1.63;;;;;;;;;;5006896;28;20030;-87
2022/04/29 00:34:22;;;;;;;2.53;1.40;;;;;;;;;;4993636;28;20542;-88
2022/04/29 00:36:48;;;;;;;2.33;1.38;;;;;;;;;;5010656;28;20058;-87
2022/04/29 00:39:14;;;;;;;3.30;2.40;;;;;;;;;;5002852;28;20057;-87
2022/04/29 00:41:40;;;;;;;2.17;1.60;;;;;;;;;;4999549;28;20466;-87
2022/04/29 00:44:07;;;;;;;2.92;1.98;;;;;;;;;;4998679;28;20045;-88
2022/04/29 00:46:44;;;;;;;2.63;1.92;;;;;;;;;;4994169;28;20041;-89
2022/04/29 00:49:12;;;;;;;2.92;2.05;;;12.00;79.90;;;;;;5011837;28;20038;-87
2022/04/29 00:51:39;;;;;;;2.75;1.63;;;;;;;;;;5011313;28;20076;-87
2022/04/29 00:54:08;;;;;;;3.27;2.17;;;;;;;;;;5005871;28;20061;-87
2022/04/29 00:56:35;;;;;;;2.28;1.98;;;;;;;;;;5004714;28;20280;-88
2022/04/29 00:59:27;;;;;;;2.58;1.25;;;11.70;80.20;;;;;;5005350;28;20483;-89
2022/04/29 01:01:55;;;;;;;1.70;1.30;;;;;;;;;;4995608;28;20084;-89
2022/04/29 01:04:48;;;;;;;3.25;1.95;;;12.00;79.40;;;;;;5011108;28;20038;-88
2022/04/29 01:07:14;;;;;;;2.92;1.65;;;;;;;;;;5009637;28;20491;-88
2022/04/29 01:09:40;;;;;;;4.18;1.70;;;;;;;;;;5007880;28;20040;-88
2022/04/29 01:12:07;;;;;;;3.13;1.55;;;11.80;80.60;;;;;;4992429;28;20022;-87
2022/04/29 01:14:34;;;;;;;6.90;2.13;;;;;;;;;;4996774;28;20030;-88
2022/04/29 01:17:00;;;;;;;4.65;2.85;;;;;;;;;;5006642;28;20049;-88
2022/04/29 01:19:26;;;;;;;1.67;1.48;;;;;;;;;;5008664;28;20387;-88
2022/04/29 01:21:52;;;;;;;2.97;1.52;;;;;;;;;;5006974;28;20026;-88
2022/04/29 01:24:18;;;;;;;2.03;1.30;;;;;;;;;;5005404;28;20044;-87
2022/04/29 01:26:44;;;;;;;2.97;1.50;;;;;;;;;;5002488;28;20026;-88
2022/04/29 01:29:10;;;;;;;2.55;1.42;;;;;;;;;;4994417;28;20491;-88
2022/04/29 01:31:37;;;;;;;2.13;1.83;;;;;;;;;;4992091;28;20018;-87
2022/04/29 01:34:03;;;;;;;4.18;1.50;;;;;;;;;;4992347;28;20105;-88
2022/04/29 01:36:29;;;;;;;1.95;1.48;;;;;;;;;;5002221;28;20037;-88
2022/04/29 01:38:55;;;;;;;1.88;1.45;;;;;;;;;;4998918;28;20398;-86
2022/04/29 01:41:21;;;;;;;5.75;2.50;;;;;;;;;;4995567;28;20052;-88
2022/04/29 01:43:47;;;;;;;1.55;1.30;;;;;;;;;;4995467;28;20026;-88
2022/04/29 01:46:13;;;;;;;3.63;1.58;;;;;;;;;;5007433;28;20017;-88
2022/04/29 01:48:39;;;;;;;3.35;1.50;;;;;;;;;;5020324;28;20038;-88
2022/04/29 01:51:06;;;;;;;3.17;1.67;;;;;;;;;;5004531;28;20022;-88
2022/04/29 01:53:33;;;;;;;1.58;1.17;;;;;;;;;;5006053;28;20026;-88
2022/04/29 01:55:59;;;;;;;1.65;1.38;;;;;;;;;;5004519;28;20046;-87
2022/04/29 01:58:25;;;;;;;1.35;1.17;;;;;;;;;;4990855;28;20038;-88
2022/04/29 02:00:51;;;;;;;1.92;1.67;;;;;;;;;;4996067;28;20451;-90
2022/04/29 02:03:17;;;;;;;2.17;1.55;;;;;;;;;;4999793;28;20022;-88
2022/04/29 02:05:44;;;;;;;3.45;1.83;;;11.30;84.10;;;;;;4997743;28;20034;-87
2022/04/29 02:08:10;;;;;;;2.05;1.35;;;;;;;;;;5002790;28;20453;-87
2022/04/29 02:10:36;;;;;;;3.13;2.15;;;;;;;;;;4991078;28;20042;-87
2022/04/29 02:13:02;;;;;;;7.30;1.58;;;;;;;;;;5022267;28;20391;-88
2022/04/29 02:15:28;;;;;;;3.58;1.88;;;;;;;;;;5004010;28;20431;-90
2022/04/29 02:17:54;;;;;;;3.03;1.85;;;;;;;;;;5000662;28;20026;-88
2022/04/29 02:20:21;;;;;;;1.60;1.48;;;;;;;;;;4995847;28;20084;-88
2022/04/29 02:22:47;;;;;;;1.98;1.55;;;;;;;;;;4992683;28;20037;-88
2022/04/29 02:25:13;;;;;;;4.38;1.90;;;;;;;;;;4989346;28;20460;-87
2022/04/29 02:27:40;;;;;;;3.22;1.70;;;;;;;;;;4996285;28;20030;-87
2022/04/29 02:30:07;;;;;;;1.50;1.40;;;;;;;;;;5000381;28;20091;-87
2022/04/29 02:32:33;;;;;;;2.00;1.73;;;;;;;;;;5003881;28;20029;-87
2022/04/29 02:35:00;;;;;;;2.33;1.63;;;;;;;;;;5005200;28;20038;-87
2022/04/29 02:37:27;;;;;;;1.55;1.40;;;;;;;;;;5006651;28;20033;-87
2022/04/29 02:39:53;;;;;;;2.70;1.67;;;;;;;;;;5006435;28;20026;-87
2022/04/29 02:42:19;;;;;;;2.78;1.38;;;;;;;;;;5007344;28;20615;-88
2022/04/29 02:44:45;;;;;;;3.58;2.00;;;;;;;;;;5002866;28;20030;-87
2022/04/29 02:47:12;;;;;;;2.90;1.83;;;;;;;;;;4997599;28;20113;-88
2022/04/29 02:49:39;;;;;;;2.78;2.08;;;;;;;;;;4990627;28;20032;-88
2022/04/29 02:52:08;;;;;;;2.83;1.73;;;;;;;;;;5010784;28;20537;-89
2022/04/29 02:54:34;;;;;;;2.72;1.67;;;;;;;;;;5003993;28;20380;-87
2022/04/29 02:57:00;;;;;;;4.65;1.80;;;;;;;;;;5002133;28;20080;-88
2022/04/29 02:59:27;;;;;;;2.10;1.42;;;;;;;;;;5005712;28;20030;-88
2022/04/29 03:01:53;;;;;;;1.75;1.60;;;;;;;;;;4992292;28;20022;-88
2022/04/29 03:04:19;;;;;;;2.45;1.55;;;;;;;;;;5005894;28;20446;-88
2022/04/29 03:06:45;;;;;;;2.22;1.63;;;;;;;;;;5005395;28;20061;-90
2022/04/29 03:09:11;;;;;;;3.33;2.10;;;10.80;84.40;;;;;;5000520;28;20034;-88
2022/04/29 03:11:37;;;;;;;2.78;1.58;;;;;;;;;;4995885;28;20030;-87
2022/04/29 03:14:04;;;;;;;2.13;1.30;;;;;;;;;;4992749;28;20018;-88
2022/04/29 03:16:29;;;;;;;3.83;2.03;;;;;;;;;;4991670;28;20105;-87
2022/04/29 03:18:56;;;;;;;3.03;1.48;;;;;;;;;;5005588;28;20570;-87
2022/04/29 03:21:22;;;;;;;2.70;1.58;;;;;;;;;;4993394;28;20113;-89
2022/04/29 03:23:48;;;;;;;2.35;1.63;;;;;;;;;;4994834;28;20033;-87
2022/04/29 03:26:14;;;;;;;1.70;1.60;;;;;;;;;;5003019;28;20101;-87
2022/04/29 03:28:40;;;;;;;4.80;1.58;;;;;;;;;;4990722;28;20113;-88
2022/04/29 03:31:07;;;;;;;3.17;1.90;;;;;;;;;;4990644;28;20118;-87
2022/04/29 03:33:33;;;;;;;6.43;2.05;;;;;;;;;;5000794;28;20068;-88
2022/04/29 03:35:59;;;;;;;2.63;1.85;;;;;;;;;;4998552;28;20026;-87
2022/04/29 03:38:25;;;;;;;3.22;1.63;;;;;;;;;;4993728;28;20514;-87
2022/04/29 03:40:52;;;;;;;5.60;1.92;;;;;;;;;;5006304;28;20034;-88
2022/04/29 03:43:18;;;;;;;2.72;1.52;;;;;;;;;;4991852;28;20030;-89
2022/04/29 03:45:45;;;;;;;2.38;1.52;;;;;;;;;;5012179;28;20034;-87
2022/04/29 03:48:11;;;;;;;3.00;1.73;;;;;;;;;;4999047;28;20062;-88
2022/04/29 03:50:38;;;;;;;2.53;1.80;;;;;;;;;;4999388;28;20030;-88
2022/04/29 03:53:04;;;;;;;3.83;2.20;;;;;;;;;;5012897;28;20034;-87
2022/04/29 03:55:32;;;;;;;2.50;1.40;;;10.80;84.80;;;;;;4995096;28;20069;-87
2022/04/29 03:57:59;;;;;;;2.72;1.63;;;;;;;;;;5004159;28;20113;-87
2022/04/29 04:00:31;;;;;;;2.70;1.65;;;;;;;;;;4999752;28;20542;-88
2022/04/29 04:02:57;;;;;;;4.00;1.73;;;10.50;84.30;;;;;;4998775;28;20542;-87
2022/04/29 04:05:24;;;;;;;6.10;1.38;;;;;;;;;;4997369;28;20045;-88
2022/04/29 04:07:50;;;;;;;10.25;3.63;;;;;;;;;;5009650;28;20123;-87
2022/04/29 04:10:16;;;;;;;3.95;2.20;;;;;;;;;;4996082;28;20181;-87
2022/04/29 04:12:43;;;;;;;3.75;1.70;;;;;;;;;;4999898;28;20038;-88
2022/04/29 04:15:11;;;;;;;2.67;1.52;;;11.20;83.90;;;;;;5003017;28;20042;-88
2022/04/29 04:17:37;;;;;;;3.90;2.00;;;;;;;;;;5005443;28;20029;-87
2022/04/29 04:20:04;;;;;;;2.58;1.60;;;;;;;;;;5006978;28;20428;-88
2022/04/29 04:22:31;;;;;;;4.57;2.25;;;;;;;;;;5009820;28;20496;-87
2022/04/29 04:25:00;;;;;;;2.95;1.80;;;;;;;;;;4997715;28;20129;-89
2022/04/29 04:27:26;;;;;;;6.03;2.33;;;;;;;;;;5003890;28;20395;-88
2022/04/29 04:29:52;;;;;;;7.22;1.42;;;;;;;;;;5006326;28;20541;-88
2022/04/29 04:32:18;;;;;;;1.40;1.30;;;;;;;;;;5008809;28;20034;-87
2022/04/29 04:34:50;;;;;;;2.75;2.00;;;;;;;;;;4994198;28;20103;-87
2022/04/29 04:37:23;;;;;;;2.88;2.08;;;10.60;84.50;;;;;;4995405;28;20053;-88
2022/04/29 04:39:50;;;;;;;3.83;2.55;;;;;;;;;;4999129;28;20511;-87
2022/04/29 04:42:17;;;;;;;2.88;1.50;;;;;;;;;;5005833;28;20050;-87
2022/04/29 04:44:43;;;;;;;3.53;1.70;;;;;;;;;;5004008;28;20467;-87
2022/04/29 04:47:10;;;;;;;2.70;1.73;;;;;;;;;;5009253;28;20037;-87
2022/04/29 04:49:36;;;;;;;3.80;1.45;;;;;;;;;;4994830;28;20025;-87
2022/04/29 04:52:02;;;;;;;2.35;2.15;;;;;;;;;;4994571;28;20034;-87
2022/04/29 04:54:28;;;;;;;2.80;1.70;;;;;;;;;;5008017;28;20083;-89
2022/04/29 04:56:54;;;;;;;3.45;2.25;;;;;;;;;;5001837;28;20030;-89
2022/04/29 04:59:20;;;;;;;4.80;2.58;;;;;;;;;;4996206;28;20480;-86
2022/04/29 05:01:46;;;;;;;4.70;2.60;;;;;;;;;;5007149;28;20034;-87
2022/04/29 05:04:12;;;;;;;3.17;1.83;;;;;;;;;;4992273;28;20023;-87
2022/04/29 05:06:38;;;;;;;2.47;1.45;;;;;;;;;;4997936;28;20041;-87
2022/04/29 05:09:05;;;;;;;5.45;2.30;;;;;;;;;;5004887;28;20029;-90
2022/04/29 05:11:31;;;;;;;5.38;2.38;;;;;;;;;;5003806;28;20108;-89
2022/04/29 05:13:57;;;;;;;2.65;2.22;;;;;;;;;;5010463;28;20049;-90
2022/04/29 05:16:24;;;;;;;3.03;2.45;;;;;;;;;;4995508;28;20046;-89
2022/04/29 05:18:50;;;;;;;3.38;2.30;;;;;;;;;;5005730;28;20029;-89
2022/04/29 05:21:16;;;;;;;2.60;1.60;;;;;;;;;;5010595;28;20026;-89
2022/04/29 05:23:42;;;;;;;3.35;2.20;;;;;;;;;;5013501;28;20531;-88
2022/04/29 05:26:08;;;;;;;6.15;3.15;;;;;;;;;;5006217;28;20142;-90
2022/04/29 05:28:34;;;;;;;2.50;1.77;;;;;;;;;;5002967;28;20026;-89
2022/04/29 05:31:01;;;;;;;3.55;2.17;;;10.30;85.20;;;;;;5022743;28;20036;-89
2022/04/29 05:33:27;;;;;;;7.00;3.23;;;;;;;;;;5003266;28;20498;-90
2022/04/29 05:35:53;;;;;;;3.75;2.42;;;;;;;;;;5013611;28;20041;-89
2022/04/29 05:38:19;;;;;;;3.75;3.33;;;;;;;;;;5011473;28;20049;-90
2022/04/29 05:43:30;;;;;;;6.35;2.80;;;;;;;;;;5006858;28;20050;-90
2022/04/29 05:45:56;;;;;;;3.85;2.22;;;;;;;;;;5002597;28;20026;-89
2022/04/29 05:48:22;;;;;;;6.47;2.33;;;;;;;;;;5009257;28;20019;-89
2022/04/29 05:50:49;;;;;;;4.93;2.83;;;;;;;;;;5007308;28;20499;-90
2022/04/29 05:53:15;;;;;;;3.17;2.22;;;;;;;;;;5016368;28;20048;-90
2022/04/29 05:55:41;;;;;;;6.15;3.13;;;;;;;;;;5006941;28;20096;-89
2022/04/29 05:58:07;;;;;;;3.78;2.70;;;;;;;;;;5007631;28;20021;-89
2022/04/29 06:00:33;;;;;;;7.00;2.95;;;;;;;;;;5012448;28;20038;-88
2022/04/29 06:03:00;;;;;;;9.93;3.45;;;;;;;;;;5014178;28;20032;-90
2022/04/29 06:05:26;;;;;;;4.50;3.50;;;;;;;;;;5011985;28;20483;-91
2022/04/29 06:07:52;;;;;;;3.65;2.50;;;;;;;;;;5013824;28;20030;-89
2022/04/29 06:10:19;;;;;;;5.95;2.67;;;;;;;;;;5018518;28;20044;-90
2022/04/29 06:12:46;;;;;;;5.75;3.30;;;;;;;;;;5017434;28;20041;-89
2022/04/29 06:15:19;;;;;;;3.88;2.45;;;;;;;;;;5013064;28;20037;-91
2022/04/29 06:17:45;;;;;;;2.70;1.85;;;;;;;;;;4996803;28;20124;-94
2022/04/29 06:20:11;;;;;;;4.95;2.83;;;;;;;;;;5004384;28;20029;-93
2022/04/29 06:22:47;;;;;;;4.20;2.60;;;;;;;;;;5017092;28;20171;-93
2022/04/29 06:25:13;;;;;;;5.03;2.65;;;;;;;;;;5026075;28;20030;-93
2022/04/29 06:27:39;;;;;;;4.72;3.60;;;;;;;;;;5004914;28;20029;-92
2022/04/29 06:30:05;;;;;;;3.58;2.33;;;;;;;;;;5014375;28;20510;-88
2022/04/29 06:32:31;;;;;;;5.72;2.30;;;;;;;;;;5010146;28;20491;-88
2022/04/29 06:34:57;;;;;;;5.63;3.05;;;;;;;;;;5009064;28;20036;-87
2022/04/29 06:37:23;;;;;;;3.55;2.55;;;;;;;;;;5010393;28;20033;-87
2022/04/29 06:39:49;;;;;;;3.33;2.30;;;;;;;;;;5008311;28;20029;-88
2022/04/29 06:42:15;;;;;;;4.05;2.13;;;;;;;;;;5002606;28;20132;-87
2022/04/29 06:44:41;;;;;;;4.82;2.58;;;;;;;;;;5006908;28;20042;-88
2022/04/29 06:47:09;;;;;;;4.32;2.72;;;;;;;;;;5004609;28;20050;-88
2022/04/29 06:49:35;;;;;;;5.55;3.22;;;;;;;;;;5010197;28;20451;-88
2022/04/29 06:52:02;;;;;;;3.83;2.72;;;;;;;;;;5027672;28;20034;-88
2022/04/29 06:54:28;;;;;;;2.83;2.13;;;;;;;;;;5008197;28;20030;-90
2022/04/29 06:56:54;;;;;;;4.38;2.70;;;;;;;;;;5006601;28;20044;-87
2022/04/29 06:59:20;;;;;;;4.32;2.20;;;;;;;;;;5002232;28;20044;-89
2022/04/29 07:01:46;;;;;;;6.15;2.88;;;;;;;;;;5008734;28;20129;-88
2022/04/29 07:04:12;;;;;;;3.08;2.40;;;;;;;;;;5010990;28;20554;-87
2022/04/29 07:06:38;;;;;;;9.52;1.77;;;;;;;;;;5005036;28;20027;-91
2022/04/29 07:09:04;;;;;;;3.42;2.20;;;;;;;;;;5009199;28;20018;-90
2022/04/29 07:11:31;;;;;;;4.47;2.15;;;;;;;;;;5014978;28;20080;-91
2022/04/29 07:13:57;;;;;;;;;;;22.20;57.30;;;;;;5014027;28;20044;-91
2022/04/29 07:16:23;;;;;;;2.95;1.52;;;;;;;;;;5013650;28;19925;-88
2022/04/29 07:18:49;;;;;;;11.10;2.13;;;;;;;;;;5016267;28;20018;-90
2022/04/29 07:21:15;;;;;;;3.30;1.80;;;;;;;;;;5013535;28;20024;-89
2022/04/29 07:23:41;;;;;;;2.20;1.48;;;;;;;;;;5017167;28;20017;-91
2022/04/29 07:26:07;;;;;;;2.42;1.60;;;;;;;;;;5004852;28;20042;-91
2022/04/29 07:28:33;;;;;;;3.90;2.03;;;;;;;;;;5003953;28;20030;-91
2022/04/29 07:31:00;;;;;;;6.53;5.90;;;;;;;;;;5003964;28;20030;-91
2022/04/29 07:33:26;;;;;;;2.67;2.30;;;;;;;;;;5001244;28;20030;-87
2022/04/29 07:44:06;;;;;;;2.53;1.27;;;;;;;;;;4992916;28;20069;-92
2022/04/29 07:46:33;;;;;;;2.08;1.35;;;;;;;;;;5009492;28;20030;-92
2022/04/29 07:48:59;;;;;;;2.67;1.58;;;;;;;;;;5012160;28;20076;-91
2022/04/29 07:51:25;;;;;;;2.47;1.75;;;;;;;;;;5011824;28;20030;-92
2022/04/29 07:53:51;;;;;;;2.05;0.90;;;;;;;;;;5011932;28;20116;-92
2022/04/29 07:56:17;;;;;;;1.55;1.15;;;;;;;;;;5001160;28;20034;-91
2022/04/29 07:58:43;;;;;;;1.63;0.80;;;;;;;;;;5006004;28;20031;-92
2022/04/29 08:01:10;;;;;;;3.00;1.42;;;;;;;;;;5011581;28;20026;-92
2022/04/29 08:03:37;;;;;;;1.40;1.00;;;;;;;;;;5006273;28;20057;-91
2022/04/29 08:06:03;;;;;;;;;;;;;;;;;;5008577;28;20048;-89
2022/04/29 08:08:29;;;;;;;2.15;1.25;;;;;;;;;;5005106;28;20386;-93
2022/04/29 08:10:55;;;;;;;3.72;1.27;;;;;;;;;;5002697;28;20030;-93
2022/04/29 08:13:21;;;;;;;3.30;1.48;;;;;;;;;;4992171;28;20432;-89
2022/04/29 08:15:48;;;;;;;3.40;1.20;;;;;;;;;;5007067;28;20050;-91
2022/04/29 08:18:13;;;;;;;;;;;28.70;37.00;;;;;;4994748;28;20026;-91
2022/04/29 08:20:40;;;;;;;1.70;1.30;;;;;;;;;;4992902;28;19910;-90
2022/04/29 08:23:06;;;;;;;2.33;1.25;;;;;;;;;;5006250;28;20076;-91
2022/04/29 08:25:32;;;;;;;2.33;1.20;;;;;;;;;;4998304;28;20030;-90
2022/04/29 08:28:00;;;;;;;2.30;0.90;;;;;;;;;;5010475;28;20050;-90
2022/04/29 08:30:30;;;;;;;9.95;2.03;;;;;;;;;;5007888;28;20029;-89
2022/04/29 08:32:57;;;;;;;1.35;1.00;;;;;;;;;;5011661;28;20037;-92
2022/04/29 08:35:23;;;;;;;5.13;1.20;;;;;;;;;;5014233;28;20495;-92
2022/04/29 08:37:49;;;;;;;7.15;1.63;;;;;;;;;;5007972;28;20026;-89
2022/04/29 08:40:16;;;;;;;3.20;1.60;;;;;;;;;;5009190;28;20036;-93
2022/04/29 08:42:43;;;;;;;2.72;1.42;;;;;;;;;;5006890;28;20060;-91
2022/04/29 08:45:09;;;;;;;3.30;1.55;;;;;;;;;;5002869;28;20038;-90
2022/04/29 08:47:36;;;;;;;2.23;1.27;;;;;;;;;;5013812;28;20113;-90
2022/04/29 08:50:03;;;;;;;2.22;1.25;;;;;;;;;;5009912;28;20030;-90
2022/04/29 08:52:29;;;;;;;3.00;1.67;;;;;;;;;;5011349;28;20526;-91
2022/04/29 09:00:25;;;;;;;3.50;1.63;;;;;;;;;;5000225;28;20085;-89
2022/04/29 09:02:51;;;;;;;2.83;1.70;;;;;;;;;;5012511;28;20418;-91
2022/04/29 09:05:17;;;;;;;3.70;0.90;;;;;;;;;;5003542;28;20143;-89
2022/04/29 09:07:56;;;;;;;2.40;0.95;;;29.30;35.60;;;;;;5006308;28;20278;-90
2022/04/29 09:10:23;;;;;;;5.05;1.50;;;28.70;35.00;;;;;;5012478;28;20050;-92
2022/04/29 09:12:49;;;;;;;5.90;1.52;;;;;;;;;;5012366;28;20107;-89
2022/04/29 09:15:15;;;;;;;1.50;1.10;;;;;;;;;;5011799;28;20033;-90
2022/04/29 09:17:49;;;;;;;2.00;1.75;;;28.30;36.30;;;;;;5010681;28;20021;-90
2022/04/29 09:20:25;;;;;;;2.65;1.73;;;;;;;;;;5006527;28;20026;-91
2022/04/29 09:22:52;;;;;;;3.55;1.27;;;27.70;37.80;;;;;;5020543;28;20049;-90
2022/04/29 09:25:18;;;;;;;1.65;0.93;;;;;;;;;;5012324;28;20590;-92
2022/04/29 09:28:03;;;;;;;1.35;1.05;;;;;;;;;;5006754;28;20034;-90
2022/04/29 09:30:40;;;;;;;2.42;1.48;;;27.70;39.40;;;;;;5008513;28;20037;-90
2022/04/29 09:33:35;;;;;;;2.97;1.27;;;;;;;;;;5011150;28;20021;-89
2022/04/29 09:36:01;;;;;;;5.15;2.85;;;;;;;;;;4999728;28;20073;-89
2022/04/29 09:41:31;;;;;;;3.33;1.55;;;;;;;;;;4997964;28;20037;-89
2022/04/29 09:43:57;;;;;;;4.20;1.30;;;;;;;;;;5006708;28;20045;-90
2022/04/29 09:46:24;;;;;;;2.90;1.52;;;27.30;39.20;;;;;;5009260;28;20124;-88
2022/04/29 09:48:55;;;;;;;5.40;1.90;;;;;;;;;;4994300;28;20037;-90
2022/04/29 09:51:44;;;;;;;5.35;1.80;;;27.60;39.50;;;;;;5000497;28;20026;-89
2022/04/29 09:54:10;;;;;;;2.38;1.67;;;;;;;;;;4998291;28;20072;-91
2022/04/29 09:56:36;;;;;;;6.10;2.30;;;;;;;;;;5006758;28;20042;-89
2022/04/29 09:59:02;;;;;;;3.22;1.50;;;;;;;;;;4999520;28;20471;-89
2022/04/29 10:01:29;;;;;;;3.40;1.92;;;;;;;;;;4995883;28;20129;-90
2022/04/29 10:04:02;;;;;;;4.93;2.58;;;;;;;;;;4992115;28;20061;-89
2022/04/29 10:06:29;;;;;;;5.15;2.70;;;;;;;;;;4995055;28;20054;-90
2022/04/29 10:08:58;;;;;;;;;;;28.50;37.40;;;;;;5004281;28;20033;-90
2022/04/29 10:11:26;;;;;;;2.63;1.90;;;;;;;;;;5005083;28;20418;-90
2022/04/29 10:13:53;;;;;;;3.85;1.83;;;;;;;;;;5009294;28;20066;-90
2022/04/29 10:16:19;;;;;;;3.40;2.17;;;;;;;;;;5009887;28;20053;-89
2022/04/29 10:21:41;;;;;;;2.35;1.33;;;;;;;;;;5012141;28;20041;-90
2022/04/29 10:24:08;;;;;;;3.47;2.33;;;;;;;;;;5004288;28;20110;-91
2022/04/29 10:26:34;;;;;;;3.58;2.05;;;;;;;;;;5006921;28;20043;-91
2022/04/29 10:29:00;;;;;;;4.20;1.83;;;;;;;;;;5009716;28;20128;-89
2022/04/29 10:31:29;;;;;;;3.13;1.85;;;;;;;;;;5008826;28;20033;-90
2022/04/29 10:33:55;;;;;;;6.00;1.83;;;;;;;;;;5009640;28;20076;-90
2022/04/29 10:36:25;;;;;;;2.83;1.80;;;;;;;;;;5010498;28;20448;-91
2022/04/29 10:39:00;;;;;;;7.38;1.92;;;;;;;;;;5000040;28;20105;-89
2022/04/29 10:41:26;;;;;;;2.20;1.63;;;;;;;;;;5008760;28;20129;-90
2022/04/29 10:43:52;;;;;;;6.95;1.95;;;;;;;;;;5006972;28;20056;-90
2022/04/29 10:46:36;;;;;;;1.40;1.20;;;30.30;34.40;;;;;;5009264;28;20032;-90
2022/04/29 10:49:21;;;;;;;1.45;1.10;;;;;;;;;;5011870;28;20109;-91
2022/04/29 10:51:52;;;;;;;2.28;1.23;;;30.20;33.90;;;;;;5009445;28;20033;-90
2022/04/29 10:54:40;;;;;;;2.78;0.98;;;;;;;;;;4994946;28;20033;-91
2022/04/29 10:57:08;;;;;;;3.55;0.95;;;29.70;34.40;;;;;;5005421;28;20034;-90
2022/04/29 10:59:54;;;;;;;1.75;1.00;;;28.90;31.90;;;;;;5007188;28;20537;-91
2022/04/29 11:02:24;;;;;;;1.33;1.10;;;;;;;;;;5002205;28;20018;-89
2022/04/29 11:04:50;;;;;;;1.50;1.08;;;;;;;;;;5005753;28;20095;-91
2022/04/29 11:07:44;;;;;;;1.95;0.80;;;28.30;37.20;;;;;;5009814;28;20022;-89
2022/04/29 11:10:33;;;;;;;1.25;1.15;;;;;;;;;;5007730;28;20033;-90
2022/04/29 11:13:00;;;;;;;2.10;0.93;;;;;;;;;;5008415;28;20029;-90
2022/04/29 11:15:42;;;;;;;;;;;27.80;34.80;;;;;;5000254;28;20099;-90
2022/04/29 11:18:25;;;;;;;1.52;1.05;;;27.20;35.80;;;;;;5005844;28;19921;-89
2022/04/29 11:20:56;;;;;;;1.98;1.48;;;;;;;;;;4996597;28;20037;-90
2022/04/29 11:26:14;;;;;;;3.00;1.10;;;;;;;;;;4999354;28;20467;-90
2022/04/29 11:28:40;;;;;;;1.60;1.00;;;25.70;38.10;;;;;;5009540;28;20088;-90
2022/04/29 11:31:08;;;;;;;2.00;1.05;;;26.00;39.80;;;;;;5009823;28;20498;-88
2022/04/29 11:33:35;;;;;;;1.48;1.15;;;;;;;;;;5004794;28;20088;-89
2022/04/29 11:36:02;;;;;;;1.67;1.15;;;;;;;;;;5010119;28;20117;-90
2022/04/29 11:38:32;;;;;;;;;;;25.50;38.00;;;;;;5009930;28;20053;-89
2022/04/29 11:40:59;;;;;;;2.45;0.90;;;;;;;;;;5005328;28;19909;-90
2022/04/29 11:43:26;;;;;;;2.13;1.20;;;;;;;;;;5007096;28;20026;-90
2022/04/29 11:46:07;;;;;;;3.50;1.15;;;24.90;38.60;;;;;;5011358;28;20033;-90
2022/04/29 11:48:36;;;;;;;1.38;0.85;;;;;;;;;;5008535;28;20034;-90
2022/04/29 11:51:06;;;;;;;1.65;1.10;;;;;;;;;;4996924;28;20831;-89
2022/04/29 11:53:33;;;;;;;1.38;1.00;;;;;;;;;;5003288;28;20521;-91
2022/04/29 11:55:59;;;;;;;2.75;0.93;;;;;;;;;;5006633;28;20372;-90
2022/04/29 11:58:29;;;;;;;1.88;0.95;;;;;;;;;;5007134;28;20030;-90
2022/04/29 12:00:55;;;;;;;2.05;1.10;;;;;;;;;;4997567;28;20030;-90
2022/04/29 12:03:25;;;;;;;1.60;1.08;;;25.30;38.70;;;;;;5006959;28;20029;-89
2022/04/29 12:05:51;;;;;;;4.88;1.35;;;;;;;;;;4999424;28;20034;-90
2022/04/29 12:08:17;;;;;;;1.25;0.90;;;;;;;;;;5008285;28;20165;-89
2022/04/29 12:10:48;;;;;;;1.45;0.90;;;;;;;;;;5010100;28;20406;-91
2022/04/29 12:13:14;;;;;;;2.00;1.20;;;;;;;;;;5012702;28;20084;-90
2022/04/29 12:15:41;;;;;;;2.13;0.88;;;;;;;;;;5014196;28;20030;-89
2022/04/29 12:18:09;;;;;;;1.67;1.00;;;;;;;;;;5011693;28;20105;-89
2022/04/29 12:20:36;;;;;;;1.77;0.85;;;;;;;;;;5012443;28;20084;-90
2022/04/29 12:23:08;;;;;;;3.58;0.63;;;;;;;;;;5011663;28;20495;-90
2022/04/29 12:25:38;;;;;;;1.05;0.88;;;25.70;37.90;;;;;;5010793;28;20034;-91
2022/04/29 12:28:20;;;;;;;1.45;1.10;;;25.50;38.90;;;;;;5003535;28;20072;-90
2022/04/29 12:36:51;;;;;;;1.50;0.80;;;;;;;;;;4998345;28;20112;-89
2022/04/29 12:39:28;;;;;;;6.30;1.15;;;;;;;;;;5007847;28;20022;-90
2022/04/29 12:42:22;;;;;;;;;;;24.60;39.00;;;;;;5004642;28;20053;-89
2022/04/29 12:45:11;;;;;;;1.65;1.00;;;;;;;;;;5004508;28;19909;-90
2022/04/29 12:47:45;;;;;;;4.88;1.10;;;;;;;;;;5004904;28;20088;-90
2022/04/29 12:50:16;;;;;;;5.30;1.30;;;24.80;42.60;;;;;;5006069;28;20056;-90
2022/04/29 12:52:49;;;;;;;1.45;0.75;;;24.90;43.00;;;;;;5011145;28;20081;-90
2022/04/29 12:55:16;;;;;;;1.45;1.00;;;;;;;;;;5010360;28;20042;-90
2022/04/29 12:57:42;;;;;;;3.38;0.82;;;;;;;;;;5007052;28;20027;-90
2022/04/29 13:00:08;;;;;;;1.38;0.60;;;;;;;;;;5012686;28;20038;-90
2022/04/29 13:02:34;;;;;;;1.67;0.80;;;;;;;;;;5009004;28;20105;-90
2022/04/29 13:05:00;;;;;;;2.53;0.95;;;;;;;;;;5008856;28;20519;-90
2022/04/29 13:07:26;;;;;;;1.52;1.05;;;;;;;;;;5010015;28;20053;-90
2022/04/29 13:09:52;;;;;;;1.35;0.73;;;;;;;;;;5004453;28;20018;-90
2022/04/29 13:12:19;;;;;;;3.13;1.00;;;;;;;;;;5011278;28;20030;-89
2022/04/29 13:14:46;;;;;;;2.30;1.20;;;;;;;;;;5005084;28;20022;-90
2022/04/29 13:17:12;;;;;;;2.03;1.02;;;;;;;;;;5005389;28;20108;-89
2022/04/29 13:19:38;;;;;;;1.10;0.80;;;;;;;;;;4994072;28;20026;-90
2022/04/29 13:22:04;;;;;;;2.97;1.15;;;;;;;;;;5010113;28;20137;-91
2022/04/29 13:24:30;;;;;;;1.63;1.02;;;;;;;;;;5003004;28;20033;-91
2022/04/29 13:26:56;;;;;;;3.03;1.40;;;;;;;;;;5012080;28;20030;-90
2022/04/29 13:29:22;;;;;;;1.50;1.40;;;;;;;;;;5008496;28;20821;-91
2022/04/29 13:31:48;;;;;;;1.08;0.93;;;;;;;;;;5010116;28;20026;-90
2022/04/29 13:34:14;;;;;;;4.82;1.30;;;;;;;;;;5013005;28;20030;-91
2022/04/29 13:36:40;;;;;;;7.68;2.28;;;;;;;;;;5013367;28;20402;-89
2022/04/29 13:39:08;;;;;;;3.53;1.00;;;;;;;;;;5008523;28;20072;-90
2022/04/29 13:41:34;;;;;;;2.55;1.20;;;;;;;;;;5004342;28;20103;-91
2022/04/29 13:44:00;;;;;;;2.97;1.05;;;;;;;;;;5011576;28;20022;-90
2022/04/29 13:46:26;;;;;;;1.38;0.70;;;;;;;;;;5010452;28;20029;-90
2022/04/29 13:48:52;;;;;;;2.10;1.08;;;;;;;;;;5012252;28;20133;-90
2022/04/29 13:51:18;;;;;;;3.42;1.33;;;;;;;;;;5008365;28;20037;-90
2022/04/29 13:53:44;;;;;;;2.88;1.25;;;;;;;;;;5008526;28;20029;-92
2022/04/29 13:56:10;;;;;;;5.20;1.48;;;;;;;;;;5011165;28;20052;-90
2022/04/29 13:58:36;;;;;;;1.85;1.67;;;;;;;;;;5010330;28;20483;-90
2022/04/29 14:01:02;;;;;;;2.60;1.13;;;;;;;;;;5010960;28;20030;-90
2022/04/29 14:03:28;;;;;;;1.40;1.20;;;;;;;;;;5011198;28;20022;-90
2022/04/29 14:05:54;;;;;;;3.05;1.20;;;;;;;;;;5006952;28;20030;-90
2022/04/29 14:08:20;;;;;;;7.88;1.23;;;;;;;;;;5011288;28;20025;-90
2022/04/29 14:10:48;;;;;;;1.90;1.23;;;;;;;;;;5001838;28;20030;-91
2022/04/29 14:13:15;;;;;;;1.13;0.85;;;;;;;;;;5011023;28;20506;-90
2022/04/29 14:15:41;;;;;;;3.10;1.45;;;;;;;;;;5008929;28;20128;-90
2022/04/29 14:18:08;;;;;;;3.03;1.30;;;;;;;;;;5010579;28;20165;-89
2022/04/29 14:20:34;;;;;;;1.67;1.00;;;;;;;;;;5011216;28;20033;-89
2022/04/29 14:23:00;;;;;;;1.38;0.80;;;;;;;;;;5009922;28;20700;-91
2022/04/29 14:25:26;;;;;;;3.75;1.70;;;;;;;;;;5010262;28;20491;-91
2022/04/29 14:27:52;;;;;;;2.15;1.40;;;;;;;;;;5006081;28;20022;-89
2022/04/29 14:30:18;;;;;;;2.38;1.20;;;;;;;;;;5001656;28;20038;-89
2022/04/29 14:32:44;;;;;;;1.90;1.67;;;;;;;;;;5003639;28;20014;-92
2022/04/29 14:35:12;;;;;;;2.93;1.57;;;;;;;;;;5007798;28;20503;-90
2022/04/29 14:37:38;;;;;;;2.90;1.25;;;;;;;;;;5011561;28;20064;-90
2022/04/29 14:40:05;;;;;;;9.23;2.38;;;;;;;;;;5011900;28;20112;-90
2022/04/29 14:42:31;;;;;;;2.42;1.48;;;;;;;;;;5010016;28;20041;-90
2022/04/29 14:44:58;;;;;;;1.07;0.80;;;22.60;45.00;;;;;;5009981;28;20120;-92
2022/04/29 14:47:24;;;;;;;3.60;1.05;;;;;;;;;;5008779;28;20116;-91
2022/04/29 14:49:50;;;;;;;1.17;0.98;;;;;;;;;;5007406;28;20445;-90
2022/04/29 14:52:16;;;;;;;2.30;1.20;;;;;;;;;;5012179;28;20060;-91
2022/04/29 14:54:42;;;;;;;4.20;1.25;;;;;;;;;;5008208;28;20040;-91
2022/04/29 14:57:08;;;;;;;2.03;1.30;;;;;;;;;;4996181;28;20037;-89
2022/04/29 14:59:35;;;;;;;1.50;0.98;;;;;;;;;;5020145;28;20026;-90
2022/04/29 15:02:01;;;;;;;2.70;1.00;;;;;;;;;;5007594;28;20457;-89
2022/04/29 15:04:28;;;;;;;2.15;1.38;;;;;;;;;;5008896;28;20091;-89